Terminal Aerodrome Forecast
Issued by NWS Charleston, WV

Current Version | Previous Version | Graphics & Text | Print | Product List | Glossary On
Versions: 1 2 3 4 5 6 7 8 9 10 11 12 13 14 15 16 17 18 19 20 21 22 23 24
000
FTUS41 KRLX 300259 AAA
TAFPKB
TAF AMD
KPKB 300259Z 3003/3024 00000KT P6SM SCT110
     FM300900 00000KT 3SM BR SCT080
     FM301200 20006KT P6SM SCT060
     FM301800 22009KT P6SM VCTS BKN045CB=

USA.gov is the U.S. government's official web portal to all federal, state and local government web resources and services.